Time;durP1;ratioP1;P1;durP2;ratioP2;P2;SDS_P1;SDS_P2;PMS_P1;PMS_P2;Temp;Humidity;BMP_temperature;BMP_pressure;BME280_temperature;BME280_humidity;BME280_pressure;Samples;Min_cycle;Max_cycle;Signal;HPM_P1;HPM_P2
2023/05/17 00:01:57;;;;;;;0.60;0.20;;;;;;;;;;6256196;28;20204;-60
2023/05/17 00:04:58;;;;;;;0.30;0.30;;;;;;;;;;6270118;28;20193;-60
2023/05/17 00:07:59;;;;;;;0.33;0.30;;;;;;;;;;6261902;28;20201;-60
2023/05/17 00:11:00;;;;;;;0.30;0.30;;;;;;;;;;6256884;28;20201;-60
2023/05/17 00:14:01;;;;;;;0.30;0.30;;;;;;;;;;6259455;28;20209;-60
2023/05/17 00:17:02;;;;;;;0.33;0.33;;;;;;;;;;6274729;28;20189;-59
2023/05/17 00:20:04;;;;;;;0.60;0.60;;;;;;;;;;6275622;28;20216;-59
2023/05/17 00:23:05;;;;;;;1.33;0.47;;;;;;;;;;6265266;28;20197;-59
2023/05/17 00:26:06;;;;;;;0.40;0.40;;;;;;;;;;6242618;28;20194;-59
2023/05/17 00:29:07;;;;;;;0.20;0.20;;;;;;;;;;6249075;28;20197;-59
2023/05/17 00:32:08;;;;;;;0.40;0.40;;;;;;;;;;6257612;28;20235;-59
2023/05/17 00:35:09;;;;;;;0.30;0.30;;;;;;;;;;6258700;28;20197;-59
2023/05/17 00:38:10;;;;;;;0.43;0.43;;;;;;;;;;6270372;28;20259;-59
2023/05/17 00:41:11;;;;;;;0.40;0.37;;;;;;;;;;6272171;28;20194;-59
2023/05/17 00:44:12;;;;;;;1.50;0.37;;;;;;;;;;6258642;28;20189;-59
2023/05/17 00:47:13;;;;;;;0.20;0.20;;;;;;;;;;6258184;28;20190;-59
2023/05/17 00:50:15;;;;;;;0.30;0.30;;;;;;;;;;6261785;28;20185;-59
2023/05/17 00:53:16;;;;;;;0.30;0.30;;;;;;;;;;6254574;28;20221;-59
2023/05/17 00:56:17;;;;;;;0.77;0.30;;;;;;;;;;6249724;28;20193;-59
2023/05/17 00:59:19;;;;;;;0.47;0.40;;;;;;;;;;6270688;28;20193;-59
2023/05/17 01:02:20;;;;;;;0.20;0.20;;;;;;;;;;6261664;28;20268;-59
2023/05/17 01:05:21;;;;;;;0.30;0.30;;;;;;;;;;6255643;28;20331;-60
2023/05/17 01:08:22;;;;;;;0.40;0.40;;;;;;;;;;6256695;28;20225;-60
2023/05/17 01:11:42;;;;;;;0.40;0.40;;;;;;;;;;6249094;28;20300;-59
2023/05/17 01:14:50;;;;;;;0.30;0.30;;;;;;;;;;6288002;28;20187;-60
2023/05/17 01:17:57;;;;;;;0.30;0.30;;;;;;;;;;6273868;28;20194;-59
2023/05/17 01:21:00;;;;;;;0.33;0.33;;;;;;;;;;6258681;28;20182;-59
2023/05/17 01:24:36;;;;;;;0.50;0.40;;;;;;;;;;6261653;28;20214;-59
2023/05/17 01:27:39;;;;;;;0.30;0.30;;;;;;;;;;6192316;28;20354;-59
2023/05/17 01:30:41;;;;;;;1.43;0.50;;;;;;;;;;6258637;28;20237;-59
2023/05/17 01:33:43;;;;;;;0.30;0.30;;;;;;;;;;6252417;28;20206;-59
2023/05/17 01:36:44;;;;;;;1.00;0.40;;;;;;;;;;6239456;28;20187;-59
2023/05/17 01:39:45;;;;;;;4.37;0.70;;;;;;;;;;6260651;28;20238;-59
2023/05/17 01:42:49;;;;;;;0.30;0.30;;;;;;;;;;6262651;28;20199;-59
2023/05/17 01:45:56;;;;;;;0.50;0.50;;;;;;;;;;6271423;28;20201;-59
2023/05/17 01:49:03;;;;;;;0.47;0.30;;;;;;;;;;6261970;28;20194;-59
2023/05/17 01:52:07;;;;;;;1.53;0.30;;;;;;;;;;6271724;28;20206;-59
2023/05/17 01:55:29;;;;;;;0.30;0.30;;;;;;;;;;6257903;28;20277;-59
2023/05/17 01:58:31;;;;;;;0.40;0.40;;;;;;;;;;6250566;28;20190;-59
2023/05/17 02:01:33;;;;;;;0.60;0.60;;;;;;;;;;6256478;28;20281;-59
2023/05/17 02:04:35;;;;;;;0.60;0.40;;;;;;;;;;6282347;28;20194;-59
2023/05/17 02:07:36;;;;;;;0.67;0.50;;;;;;;;;;6260749;28;20201;-59
2023/05/17 02:10:37;;;;;;;0.30;0.30;;;;;;;;;;6253011;28;20216;-59
2023/05/17 02:13:39;;;;;;;0.50;0.40;;;;;;;;;;6252339;28;20238;-59
2023/05/17 02:16:40;;;;;;;0.40;0.40;;;;;;;;;;6256925;28;20193;-59
2023/05/17 02:19:41;;;;;;;0.30;0.30;;;;;;;;;;6258501;28;20224;-59
2023/05/17 02:22:42;;;;;;;1.70;0.40;;;;;;;;;;6269886;28;20197;-59
2023/05/17 02:25:43;;;;;;;0.27;0.27;;;;;;;;;;6268487;28;20204;-59
2023/05/17 02:28:45;;;;;;;0.47;0.40;;;;;;;;;;6265399;28;20201;-59
2023/05/17 02:31:46;;;;;;;0.50;0.30;;;;;;;;;;6273042;28;20241;-59
2023/05/17 02:34:47;;;;;;;0.33;0.20;;;;;;;;;;6250262;28;20203;-59
2023/05/17 02:37:48;;;;;;;0.87;0.30;;;;;;;;;;6258513;28;20241;-59
2023/05/17 02:40:49;;;;;;;0.40;0.40;;;;;;;;;;6254897;28;20278;-59
2023/05/17 02:43:51;;;;;;;1.70;0.37;;;;;;;;;;6260830;28;20193;-59
2023/05/17 02:46:52;;;;;;;0.40;0.40;;;;;;;;;;6266200;28;20272;-59
2023/05/17 02:49:53;;;;;;;1.33;0.37;;;;;;;;;;6272475;28;20221;-59
2023/05/17 02:52:54;;;;;;;0.20;0.20;;;;;;;;;;6253296;28;20251;-59
2023/05/17 02:55:57;;;;;;;0.43;0.37;;;;;;;;;;6256094;28;20201;-59
2023/05/17 02:59:00;;;;;;;0.57;0.50;;;;;;;;;;6262880;28;20281;-59
2023/05/17 03:02:01;;;;;;;0.20;0.20;;;;;;;;;;6267213;28;20206;-59
2023/05/17 03:05:03;;;;;;;0.40;0.40;;;;;;;;;;6274567;28;20215;-59
2023/05/17 03:08:04;;;;;;;0.30;0.30;;;;;;;;;;6268278;28;20289;-59
2023/05/17 03:11:05;;;;;;;1.97;0.37;;;;;;;;;;6250631;28;20198;-59
2023/05/17 03:14:06;;;;;;;0.50;0.50;;;;;;;;;;6252768;28;20248;-59
2023/05/17 03:17:07;;;;;;;0.30;0.23;;;;;;;;;;6259354;28;20193;-59
2023/05/17 03:20:08;;;;;;;0.43;0.40;;;;;;;;;;6263648;28;20199;-59
2023/05/17 03:23:09;;;;;;;0.40;0.40;;;;;;;;;;6263440;28;20205;-59
2023/05/17 03:26:10;;;;;;;0.40;0.40;;;;;;;;;;6255263;28;20186;-59
2023/05/17 03:29:11;;;;;;;0.70;0.40;;;;;;;;;;6254564;28;20248;-59
2023/05/17 03:32:12;;;;;;;0.77;0.30;;;;;;;;;;6275887;28;20209;-59
2023/05/17 03:35:14;;;;;;;0.50;0.40;;;;;;;;;;6256309;28;20241;-59
2023/05/17 03:38:15;;;;;;;0.50;0.50;;;;;;;;;;6275728;28;20257;-59
2023/05/17 03:41:16;;;;;;;0.67;0.50;;;;;;;;;;6254267;28;20201;-59
2023/05/17 03:44:17;;;;;;;0.20;0.20;;;;;;;;;;6266613;28;20213;-59
2023/05/17 03:47:22;;;;;;;0.60;0.20;;;;;;;;;;6258000;28;20185;-59
2023/05/17 03:50:23;;;;;;;0.40;0.40;;;;;;;;;;6263261;28;20221;-59
2023/05/17 03:53:24;;;;;;;0.20;0.20;;;;;;;;;;6276926;28;20209;-58
2023/05/17 03:56:25;;;;;;;0.47;0.47;;;;;;;;;;6256008;28;20220;-57
2023/05/17 03:59:26;;;;;;;0.20;0.20;;;;;;;;;;6257604;28;20202;-58
2023/05/17 04:02:27;;;;;;;0.40;0.30;;;;;;;;;;6263937;28;20205;-58
2023/05/17 04:05:28;;;;;;;1.50;0.37;;;;;;;;;;6248891;28;20296;-58
2023/05/17 04:08:29;;;;;;;1.37;0.40;;;;;;;;;;6258566;28;20201;-58
2023/05/17 04:11:31;;;;;;;0.30;0.27;;;;;;;;;;6250520;28;20314;-58
2023/05/17 04:14:32;;;;;;;0.83;0.33;;;;;;;;;;6252647;28;20240;-58
2023/05/17 04:17:34;;;;;;;1.60;0.43;;;;;;;;;;6242977;28;20255;-57
2023/05/17 04:20:35;;;;;;;0.40;0.40;;;;;;;;;;6246360;28;20198;-57
2023/05/17 04:23:36;;;;;;;0.30;0.23;;;;;;;;;;6253248;28;20193;-58
2023/05/17 04:26:37;;;;;;;0.10;0.10;;;;;;;;;;6262024;28;20236;-58
2023/05/17 04:29:39;;;;;;;0.30;0.30;;;;;;;;;;6262854;28;20235;-58
2023/05/17 04:32:41;;;;;;;0.70;0.30;;;;;;;;;;6263593;28;20214;-57
2023/05/17 04:35:43;;;;;;;0.40;0.40;;;;;;;;;;6247755;28;20197;-58
2023/05/17 04:38:45;;;;;;;0.20;0.20;;;;;;;;;;6262357;28;20230;-58
2023/05/17 04:41:46;;;;;;;0.70;0.30;;;;;;;;;;6251809;28;20194;-58
2023/05/17 04:44:47;;;;;;;0.40;0.20;;;;;;;;;;6269859;28;20189;-58
2023/05/17 04:47:49;;;;;;;1.03;0.40;;;;;;;;;;6243180;28;20190;-58
2023/05/17 04:50:50;;;;;;;0.20;0.20;;;;;;;;;;6253774;28;20195;-58
2023/05/17 04:53:52;;;;;;;0.30;0.30;;;;;;;;;;6256887;28;20214;-57
2023/05/17 04:56:53;;;;;;;0.30;0.20;;;;;;;;;;6263127;28;20277;-58
2023/05/17 04:59:54;;;;;;;0.10;0.10;;;;;;;;;;6251364;28;20193;-58
2023/05/17 05:02:55;;;;;;;0.20;0.20;;;;;;;;;;6251964;28;20194;-58
2023/05/17 05:05:56;;;;;;;0.20;0.20;;;;;;;;;;6264613;28;20194;-56
2023/05/17 05:08:57;;;;;;;0.63;0.37;;;;;;;;;;6254641;28;20197;-58
2023/05/17 05:11:58;;;;;;;1.93;0.40;;;;;;;;;;6252197;28;20263;-58
2023/05/17 05:14:59;;;;;;;0.67;0.50;;;;;;;;;;6256012;28;20231;-57
2023/05/17 05:18:00;;;;;;;0.20;0.20;;;;;;;;;;6262764;28;20280;-57
2023/05/17 05:21:02;;;;;;;0.57;0.37;;;;;;;;;;6250043;28;20194;-59
2023/05/17 05:24:03;;;;;;;0.23;0.20;;;;;;;;;;6260042;28;20201;-59
2023/05/17 05:27:04;;;;;;;0.30;0.30;;;;;;;;;;6255670;28;20193;-58
2023/05/17 05:30:05;;;;;;;0.53;0.30;;;;;;;;;;6251866;28;20228;-57
2023/05/17 05:33:06;;;;;;;0.20;0.20;;;;;;;;;;6261125;28;20242;-57
2023/05/17 05:36:08;;;;;;;0.13;0.13;;;;;;;;;;6255653;28;20194;-57
2023/05/17 05:39:09;;;;;;;0.40;0.30;;;;;;;;;;6255032;28;20261;-57
2023/05/17 05:42:10;;;;;;;3.60;0.30;;;;;;;;;;6255865;28;20185;-57
2023/05/17 05:45:11;;;;;;;2.00;0.27;;;;;;;;;;6247879;28;20227;-57
2023/05/17 05:48:13;;;;;;;0.37;0.30;;;;;;;;;;6255481;28;20197;-57
2023/05/17 05:51:14;;;;;;;0.57;0.30;;;;;;;;;;6266283;28;20233;-57
2023/05/17 05:54:15;;;;;;;0.47;0.47;;;;;;;;;;6263826;28;20194;-57
2023/05/17 05:57:16;;;;;;;0.30;0.30;;;;;;;;;;6245376;28;20296;-56
2023/05/17 06:00:18;;;;;;;0.20;0.20;;;;;;;;;;6252767;28;20189;-56
2023/05/17 06:03:19;;;;;;;1.23;0.30;;;;;;;;;;6259367;28;20210;-57
2023/05/17 06:06:20;;;;;;;0.40;0.33;;;;;;;;;;6240442;28;20201;-57
2023/05/17 06:09:21;;;;;;;1.07;0.37;;;;;;;;;;6248167;28;20201;-57
2023/05/17 06:12:22;;;;;;;0.23;0.23;;;;;;;;;;6247988;28;20225;-57
2023/05/17 06:15:23;;;;;;;0.37;0.20;;;;;;;;;;6266605;28;20220;-57
2023/05/17 06:18:24;;;;;;;0.50;0.40;;;;;;;;;;6252827;28;20229;-57
2023/05/17 06:21:25;;;;;;;0.20;0.20;;;;;;;;;;6251323;28;20209;-58
2023/05/17 06:24:27;;;;;;;0.20;0.20;;;;;;;;;;6247373;28;20271;-58
2023/05/17 06:27:28;;;;;;;0.20;0.20;;;;;;;;;;6258840;28;20186;-58
2023/05/17 06:30:29;;;;;;;0.20;0.20;;;;;;;;;;6249505;28;20181;-57
2023/05/17 06:33:30;;;;;;;0.20;0.20;;;;;;;;;;6251921;28;20222;-58
2023/05/17 06:36:31;;;;;;;0.20;0.20;;;;;;;;;;6235785;28;20197;-57
2023/05/17 06:39:32;;;;;;;0.53;0.40;;;;;;;;;;6249672;28;20248;-57
2023/05/17 06:42:33;;;;;;;0.30;0.30;;;;;;;;;;6253089;28;20198;-58
2023/05/17 06:45:34;;;;;;;0.20;0.20;;;;;;;;;;6252506;28;20199;-57
2023/05/17 06:48:35;;;;;;;0.43;0.20;;;;;;;;;;6249902;28;20189;-57
2023/05/17 06:51:36;;;;;;;0.10;0.10;;;;;;;;;;6239742;28;20213;-56
2023/05/17 06:54:38;;;;;;;0.43;0.40;;;;;;;;;;6241791;28;20253;-57
2023/05/17 06:57:39;;;;;;;0.20;0.20;;;;;;;;;;6253200;28;20281;-57
2023/05/17 07:00:40;;;;;;;0.20;0.20;;;;;;;;;;6250718;28;20206;-58
2023/05/17 07:03:41;;;;;;;0.20;0.20;;;;;;;;;;6258060;28;20201;-58
2023/05/17 07:06:42;;;;;;;0.20;0.20;;;;;;;;;;6257711;28;20205;-58
2023/05/17 07:09:43;;;;;;;0.10;0.10;;;;;;;;;;6263384;28;20193;-58
2023/05/17 07:12:44;;;;;;;2.00;0.30;;;;;;;;;;6244906;28;20221;-58
2023/05/17 07:15:45;;;;;;;0.43;0.30;;;;;;;;;;6242721;28;20187;-58
2023/05/17 07:18:46;;;;;;;2.10;0.23;;;;;;;;;;6244898;28;20191;-58
2023/05/17 07:21:47;;;;;;;2.47;0.60;;;;;;;;;;6262003;28;20200;-58
2023/05/17 07:24:48;;;;;;;0.10;0.10;;;;;;;;;;6252845;28;20190;-58
2023/05/17 07:27:49;;;;;;;0.50;0.20;;;;;;;;;;6250379;28;20205;-58
2023/05/17 07:30:50;;;;;;;0.33;0.20;;;;;;;;;;6270512;28;20189;-58
2023/05/17 07:33:52;;;;;;;1.47;0.20;;;;;;;;;;6242733;28;20216;-58
2023/05/17 07:36:53;;;;;;;0.10;0.10;;;;;;;;;;6249161;28;20195;-59
2023/05/17 07:39:54;;;;;;;0.83;0.20;;;;;;;;;;6261475;28;20229;-59
2023/05/17 07:42:55;;;;;;;0.83;0.30;;;;;;;;;;6265725;28;20190;-58
2023/05/17 07:45:56;;;;;;;0.53;0.40;;;;;;;;;;6259364;28;20233;-58
2023/05/17 07:48:57;;;;;;;0.10;0.10;;;;;;;;;;6248664;28;20278;-57
2023/05/17 07:51:58;;;;;;;0.33;0.30;;;;;;;;;;6270988;28;20213;-58
2023/05/17 07:54:59;;;;;;;1.30;0.20;;;;;;;;;;6261376;28;20201;-58
2023/05/17 07:58:00;;;;;;;0.47;0.23;;;;;;;;;;6252680;28;20197;-58
2023/05/17 08:01:01;;;;;;;0.23;0.20;;;;;;;;;;6245441;28;20240;-58
2023/05/17 08:04:03;;;;;;;0.17;0.17;;;;;;;;;;6254472;28;20292;-59
2023/05/17 08:07:04;;;;;;;0.27;0.20;;;;;;;;;;6264395;28;20203;-57
2023/05/17 08:10:06;;;;;;;1.60;0.20;;;;;;;;;;6264348;28;20194;-57
2023/05/17 08:13:07;;;;;;;0.33;0.30;;;;;;;;;;6253346;28;20223;-57
2023/05/17 08:16:08;;;;;;;0.40;0.30;;;;;;;;;;6255676;28;20195;-58
2023/05/17 08:19:15;;;;;;;0.73;0.30;;;;;;;;;;6238036;28;20193;-58
2023/05/17 08:22:16;;;;;;;0.50;0.30;;;;;;;;;;6264399;28;20275;-58
2023/05/17 08:25:19;;;;;;;0.67;0.27;;;;;;;;;;6283145;28;20258;-58
2023/05/17 08:28:20;;;;;;;0.40;0.20;;;;;;;;;;6268217;28;20218;-58
2023/05/17 08:31:21;;;;;;;0.60;0.37;;;;;;;;;;6255663;28;20197;-58
2023/05/17 08:34:22;;;;;;;0.73;0.30;;;;;;;;;;6248481;28;20194;-58
2023/05/17 08:37:23;;;;;;;0.47;0.20;;;;;;;;;;6255751;28;20264;-58
2023/05/17 08:40:24;;;;;;;0.20;0.20;;;;;;;;;;6263149;28;20193;-58
2023/05/17 08:43:25;;;;;;;0.30;0.30;;;;;;;;;;6254199;28;20251;-58
2023/05/17 08:46:27;;;;;;;0.10;0.10;;;;;;;;;;6267686;28;20212;-58
2023/05/17 08:49:32;;;;;;;0.27;0.27;;;;;;;;;;6261263;28;20210;-58
2023/05/17 08:52:33;;;;;;;0.20;0.20;;;;;;;;;;6264675;28;20220;-58
2023/05/17 08:55:35;;;;;;;0.40;0.20;;;;;;;;;;6263406;28;20675;-58
2023/05/17 08:58:36;;;;;;;0.20;0.20;;;;;;;;;;6271721;28;20196;-58
2023/05/17 09:01:43;;;;;;;2.40;0.43;;;;;;;;;;6262198;28;20196;-58
2023/05/17 09:04:44;;;;;;;0.10;0.10;;;;;;;;;;6266433;28;20187;-58
2023/05/17 09:07:46;;;;;;;0.37;0.37;;;;;;;;;;6252555;28;20295;-58
2023/05/17 09:10:48;;;;;;;1.70;0.20;;;;;;;;;;6263041;28;20195;-59
2023/05/17 09:13:49;;;;;;;2.80;0.43;;;;;;;;;;6269815;28;20225;-57
2023/05/17 09:16:58;;;;;;;0.20;0.20;;;;;;;;;;6247591;28;20194;-59
2023/05/17 09:20:01;;;;;;;0.33;0.20;;;;;;;;;;6252298;28;20187;-59
2023/05/17 09:23:06;;;;;;;0.50;0.20;;;;;;;;;;6260293;28;20198;-58
2023/05/17 09:26:07;;;;;;;0.93;0.30;;;;;;;;;;6257775;28;20214;-58
2023/05/17 09:29:09;;;;;;;0.47;0.30;;;;;;;;;;6263502;28;20197;-58
2023/05/17 09:32:19;;;;;;;0.10;0.10;;;;;;;;;;6248549;28;20257;-58
2023/05/17 09:35:26;;;;;;;0.20;0.20;;;;;;;;;;6271188;28;20198;-58
2023/05/17 09:38:28;;;;;;;0.33;0.30;;;;;;;;;;6256998;28;20476;-58
2023/05/17 09:41:33;;;;;;;0.87;0.20;;;;;;;;;;6254982;28;20202;-58
2023/05/17 09:44:45;;;;;;;0.40;0.40;;;;;;;;;;6248266;28;20191;-57
2023/05/17 09:47:46;;;;;;;0.27;0.27;;;;;;;;;;6249167;28;20182;-57
2023/05/17 09:50:49;;;;;;;0.40;0.40;;;;;;;;;;6259936;28;20189;-58
2023/05/17 09:53:53;;;;;;;0.43;0.20;;;;;;;;;;6252339;28;20235;-58
2023/05/17 09:56:54;;;;;;;0.30;0.30;;;;;;;;;;6258188;28;20201;-58
2023/05/17 09:59:56;;;;;;;1.83;0.20;;;;;;;;;;6247455;28;20309;-57
2023/05/17 10:02:58;;;;;;;0.33;0.30;;;;;;;;;;6252426;28;20197;-58
2023/05/17 10:06:01;;;;;;;0.20;0.20;;;;;;;;;;6241664;28;20202;-58
2023/05/17 10:09:02;;;;;;;0.30;0.30;;;;;;;;;;6264009;28;20198;-58
2023/05/17 10:12:06;;;;;;;0.27;0.27;;;;;;;;;;6251085;28;20343;-58
2023/05/17 10:15:08;;;;;;;1.50;0.40;;;;;;;;;;6249099;28;20205;-58
2023/05/17 10:18:09;;;;;;;0.20;0.20;;;;;;;;;;6246641;28;20285;-58
2023/05/17 10:21:11;;;;;;;0.20;0.20;;;;;;;;;;6266924;28;20186;-58
2023/05/17 10:24:12;;;;;;;0.27;0.27;;;;;;;;;;6266901;28;20190;-58
2023/05/17 10:27:14;;;;;;;0.63;0.40;;;;;;;;;;6252356;28;20284;-58
2023/05/17 10:30:17;;;;;;;0.30;0.30;;;;;;;;;;6268719;28;20281;-58
2023/05/17 10:33:21;;;;;;;1.13;0.30;;;;;;;;;;6266712;28;20292;-58
2023/05/17 10:36:23;;;;;;;0.17;0.10;;;;;;;;;;6269122;28;20199;-58
2023/05/17 10:39:24;;;;;;;0.20;0.20;;;;;;;;;;6248813;28;20234;-58
2023/05/17 10:42:26;;;;;;;0.20;0.20;;;;;;;;;;6269519;28;20206;-58
2023/05/17 10:45:27;;;;;;;0.50;0.20;;;;;;;;;;6244970;28;20189;-59
2023/05/17 10:48:29;;;;;;;2.37;0.30;;;;;;;;;;6248192;28;20293;-58
2023/05/17 10:51:35;;;;;;;0.33;0.30;;;;;;;;;;6257165;28;20260;-58
2023/05/17 10:54:38;;;;;;;0.57;0.40;;;;;;;;;;6265900;28;20217;-57
2023/05/17 10:57:40;;;;;;;0.20;0.20;;;;;;;;;;6267118;28;20191;-57
2023/05/17 11:00:41;;;;;;;0.30;0.30;;;;;;;;;;6258949;28;20249;-58
2023/05/17 11:03:43;;;;;;;3.60;0.43;;;;;;;;;;6273554;28;20266;-58
2023/05/17 11:06:44;;;;;;;0.47;0.33;;;;;;;;;;6277935;28;20196;-59
2023/05/17 11:09:48;;;;;;;0.27;0.27;;;;;;;;;;6250825;28;20201;-59
2023/05/17 11:12:54;;;;;;;1.33;0.30;;;;;;;;;;6276535;28;20214;-59
2023/05/17 11:16:05;;;;;;;2.00;0.40;;;;;;;;;;6258566;28;20222;-59
2023/05/17 11:19:07;;;;;;;0.40;0.40;;;;;;;;;;6254132;28;20282;-59
2023/05/17 11:22:12;;;;;;;0.33;0.30;;;;;;;;;;6282241;28;20202;-56
2023/05/17 11:25:13;;;;;;;0.57;0.50;;;;;;;;;;6284144;28;20189;-58
2023/05/17 11:28:18;;;;;;;1.50;0.37;;;;;;;;;;6274646;28;20186;-58
2023/05/17 11:31:29;;;;;;;0.67;0.30;;;;;;;;;;6253842;28;20252;-58
2023/05/17 11:34:32;;;;;;;1.40;0.30;;;;;;;;;;6266547;28;20202;-58
2023/05/17 11:37:33;;;;;;;0.20;0.20;;;;;;;;;;6264509;28;20227;-60
2023/05/17 11:40:34;;;;;;;0.20;0.20;;;;;;;;;;6265033;28;20247;-58
2023/05/17 11:43:35;;;;;;;1.40;0.40;;;;;;;;;;6249372;28;20236;-58
2023/05/17 11:46:37;;;;;;;0.40;0.30;;;;;;;;;;6240055;28;20217;-58
2023/05/17 11:49:39;;;;;;;0.30;0.30;;;;;;;;;;6256324;28;20190;-59
2023/05/17 11:52:40;;;;;;;0.20;0.20;;;;;;;;;;6272935;28;20221;-68
2023/05/17 11:55:51;;;;;;;1.67;0.30;;;;;;;;;;6255870;28;20219;-58
2023/05/17 11:58:53;;;;;;;0.67;0.30;;;;;;;;;;6249923;28;20245;-57
2023/05/17 12:01:55;;;;;;;0.30;0.30;;;;;;;;;;6269105;28;20278;-57
2023/05/17 12:04:56;;;;;;;0.43;0.30;;;;;;;;;;6257124;28;20204;-58
2023/05/17 12:07:57;;;;;;;1.03;0.30;;;;;;;;;;6254699;28;20202;-57
2023/05/17 12:10:58;;;;;;;1.20;0.20;;;;;;;;;;6250526;28;20213;-58
2023/05/17 12:13:59;;;;;;;0.60;0.30;;;;;;;;;;6242777;28;20237;-58
2023/05/17 12:17:02;;;;;;;1.20;0.30;;;;;;;;;;6251754;28;20198;-58
2023/05/17 12:20:08;;;;;;;0.30;0.30;;;;;;;;;;6262693;28;20283;-58
2023/05/17 12:23:09;;;;;;;0.30;0.30;;;;;;;;;;6261845;28;20220;-58
2023/05/17 12:26:11;;;;;;;0.90;0.30;;;;;;;;;;6256574;28;20198;-58
2023/05/17 12:29:16;;;;;;;0.30;0.30;;;;;;;;;;6261143;28;20272;-58
2023/05/17 12:32:17;;;;;;;0.40;0.27;;;;;;;;;;6263908;28;20211;-55
2023/05/17 12:35:18;;;;;;;1.07;0.30;;;;;;;;;;6261670;28;20289;-56
2023/05/17 12:38:20;;;;;;;1.13;0.30;;;;;;;;;;6254459;28;20263;-56
2023/05/17 12:41:22;;;;;;;2.20;0.43;;;;;;;;;;6265851;28;20191;-56
2023/05/17 12:44:25;;;;;;;0.30;0.30;;;;;;;;;;6260000;28;20187;-58
2023/05/17 12:47:30;;;;;;;2.00;0.20;;;;;;;;;;6256095;28;20260;-55
2023/05/17 12:50:32;;;;;;;1.00;0.30;;;;;;;;;;6259942;28;20191;-58
2023/05/17 12:54:02;;;;;;;1.23;0.30;;;;;;;;;;6264174;28;20221;-57
2023/05/17 12:57:10;;;;;;;0.40;0.33;;;;;;;;;;6258441;28;20258;-57
2023/05/17 13:00:12;;;;;;;0.20;0.20;;;;;;;;;;6260887;28;20201;-57
2023/05/17 13:03:13;;;;;;;1.57;0.30;;;;;;;;;;6242183;28;20253;-57
2023/05/17 13:06:14;;;;;;;0.30;0.30;;;;;;;;;;6265710;28;20198;-57
2023/05/17 13:09:17;;;;;;;0.20;0.20;;;;;;;;;;6250538;28;20282;-57
2023/05/17 13:12:24;;;;;;;1.40;0.30;;;;;;;;;;6263453;28;20216;-57
2023/05/17 13:15:32;;;;;;;0.87;0.40;;;;;;;;;;6252374;28;20198;-57
2023/05/17 13:18:49;;;;;;;0.40;0.40;;;;;;;;;;6264680;28;20187;-58
2023/05/17 13:21:50;;;;;;;0.73;0.50;;;;;;;;;;6257049;28;20205;-55
2023/05/17 13:24:51;;;;;;;0.20;0.20;;;;;;;;;;6253509;28;20189;-58
2023/05/17 13:27:54;;;;;;;0.40;0.40;;;;;;;;;;6281645;28;20198;-57
2023/05/17 13:30:55;;;;;;;1.17;0.33;;;;;;;;;;6251561;28;20290;-58
2023/05/17 13:33:56;;;;;;;1.87;0.50;;;;;;;;;;6248556;28;20225;-57
2023/05/17 13:36:57;;;;;;;0.40;0.30;;;;;;;;;;6269044;28;20185;-56
2023/05/17 13:39:58;;;;;;;0.30;0.30;;;;;;;;;;6264262;28;20249;-58
2023/05/17 13:42:59;;;;;;;0.63;0.40;;;;;;;;;;6249248;28;20194;-58
2023/05/17 13:46:00;;;;;;;0.83;0.40;;;;;;;;;;6257812;28;20264;-58
2023/05/17 13:49:03;;;;;;;1.80;0.33;;;;;;;;;;6251913;28;20384;-58
2023/05/17 13:52:07;;;;;;;0.57;0.57;;;;;;;;;;6252019;28;20222;-58
2023/05/17 13:55:08;;;;;;;0.30;0.30;;;;;;;;;;6251581;28;20198;-59
2023/05/17 13:58:09;;;;;;;0.77;0.40;;;;;;;;;;6255577;28;20186;-59
2023/05/17 14:01:11;;;;;;;0.40;0.37;;;;;;;;;;6257220;28;20264;-59
2023/05/17 14:04:12;;;;;;;1.50;0.23;;;;;;;;;;6255442;28;20193;-59
2023/05/17 14:07:13;;;;;;;0.60;0.30;;;;;;;;;;6248689;28;20190;-59
2023/05/17 14:10:14;;;;;;;0.33;0.33;;;;;;;;;;6256290;28;20229;-59
2023/05/17 14:13:15;;;;;;;0.87;0.50;;;;;;;;;;6245344;28;20225;-58
2023/05/17 14:16:16;;;;;;;0.43;0.43;;;;;;;;;;6272352;28;20220;-58
2023/05/17 14:19:17;;;;;;;0.97;0.50;;;;;;;;;;6231467;28;20205;-58
2023/05/17 14:22:18;;;;;;;0.30;0.30;;;;;;;;;;6256903;28;20211;-59
2023/05/17 14:25:20;;;;;;;1.80;0.43;;;;;;;;;;6260001;28;20197;-59
2023/05/17 14:28:21;;;;;;;1.13;0.60;;;;;;;;;;6244955;28;20280;-58
2023/05/17 14:31:22;;;;;;;0.93;0.60;;;;;;;;;;6257324;28;20198;-58
2023/05/17 14:34:23;;;;;;;0.77;0.60;;;;;;;;;;6252517;28;20228;-58
2023/05/17 14:37:24;;;;;;;1.03;0.63;;;;;;;;;;6265115;28;20248;-58
2023/05/17 14:40:26;;;;;;;2.33;0.47;;;;;;;;;;6252608;28;20237;-59
2023/05/17 14:43:27;;;;;;;2.10;0.70;;;;;;;;;;6265128;28;20193;-58
2023/05/17 14:46:28;;;;;;;1.07;0.50;;;;;;;;;;6274429;28;20204;-58
2023/05/17 14:49:29;;;;;;;0.93;0.63;;;;;;;;;;6264222;28;20191;-58
2023/05/17 14:52:30;;;;;;;17.07;1.13;;;;;;;;;;6255379;28;20209;-58
2023/05/17 14:55:31;;;;;;;0.90;0.70;;;;;;;;;;6259595;28;20185;-58
2023/05/17 14:58:32;;;;;;;0.60;0.60;;;;;;;;;;6258457;28;20181;-59
2023/05/17 15:01:33;;;;;;;1.80;0.60;;;;;;;;;;6249540;28;20190;-59
2023/05/17 15:04:34;;;;;;;0.90;0.60;;;;;;;;;;6258554;28;20280;-59
2023/05/17 15:07:35;;;;;;;1.40;0.57;;;;;;;;;;6261023;28;20197;-59
2023/05/17 15:10:40;;;;;;;0.97;0.70;;;;;;;;;;6258379;28;20187;-59
2023/05/17 15:13:41;;;;;;;0.70;0.70;;;;;;;;;;6275764;28;20214;-59
2023/05/17 15:16:42;;;;;;;0.90;0.70;;;;;;;;;;6261360;28;20281;-59
2023/05/17 15:19:43;;;;;;;0.43;0.43;;;;;;;;;;6258206;28;20220;-58
2023/05/17 15:22:45;;;;;;;1.67;1.00;;;;;;;;;;6271412;28;20201;-58
2023/05/17 15:25:46;;;;;;;0.60;0.50;;;;;;;;;;6260818;28;20198;-58
2023/05/17 15:28:48;;;;;;;2.37;0.77;;;;;;;;;;6271026;28;20189;-58
2023/05/17 15:31:50;;;;;;;1.20;0.70;;;;;;;;;;6252841;28;20202;-59
2023/05/17 15:34:51;;;;;;;0.57;0.50;;;;;;;;;;6258879;28;20186;-59
2023/05/17 15:37:52;;;;;;;0.53;0.53;;;;;;;;;;6258876;28;20249;-59
2023/05/17 15:41:04;;;;;;;0.60;0.60;;;;;;;;;;6261453;28;20197;-59
2023/05/17 15:44:06;;;;;;;0.50;0.50;;;;;;;;;;6258005;28;20194;-59
2023/05/17 15:47:07;;;;;;;0.60;0.60;;;;;;;;;;6263025;28;20200;-59
2023/05/17 15:50:09;;;;;;;0.60;0.57;;;;;;;;;;6251120;28;20191;-58
2023/05/17 15:53:10;;;;;;;0.50;0.50;;;;;;;;;;6248072;28;20231;-58
2023/05/17 15:56:11;;;;;;;0.60;0.47;;;;;;;;;;6253122;28;20197;-58
2023/05/17 15:59:12;;;;;;;0.80;0.77;;;;;;;;;;6259155;28;20243;-58
2023/05/17 16:02:13;;;;;;;0.97;0.50;;;;;;;;;;6264099;28;20194;-56
2023/05/17 16:05:15;;;;;;;0.60;0.60;;;;;;;;;;6253532;28;20209;-58
2023/05/17 16:08:16;;;;;;;1.80;0.50;;;;;;;;;;6261081;28;20324;-57
2023/05/17 16:11:17;;;;;;;0.50;0.50;;;;;;;;;;6258542;28;20207;-58
2023/05/17 16:14:18;;;;;;;0.50;0.50;;;;;;;;;;6259818;28;20213;-58
2023/05/17 16:17:19;;;;;;;2.33;0.47;;;;;;;;;;6251683;28;20205;-60
2023/05/17 16:20:23;;;;;;;1.23;0.40;;;;;;;;;;6249220;28;20190;-58
2023/05/17 16:23:24;;;;;;;1.90;0.40;;;;;;;;;;6258836;28;20199;-59
2023/05/17 16:26:25;;;;;;;0.50;0.50;;;;;;;;;;6249248;28;20190;-59
2023/05/17 16:29:26;;;;;;;0.60;0.60;;;;;;;;;;6261934;28;20225;-59
2023/05/17 16:32:27;;;;;;;0.40;0.40;;;;;;;;;;6254522;28;20304;-59
2023/05/17 16:35:28;;;;;;;0.70;0.50;;;;;;;;;;6262676;28;20182;-59
2023/05/17 16:38:29;;;;;;;0.40;0.40;;;;;;;;;;6257179;28;20267;-58
2023/05/17 16:41:32;;;;;;;0.50;0.50;;;;;;;;;;6250152;28;20197;-59
2023/05/17 16:44:33;;;;;;;0.73;0.30;;;;;;;;;;6261102;28;20242;-59
2023/05/17 16:47:34;;;;;;;0.60;0.50;;;;;;;;;;6255969;28;20193;-58
2023/05/17 16:50:35;;;;;;;1.03;0.50;;;;;;;;;;6260717;28;20221;-58
2023/05/17 16:53:36;;;;;;;0.40;0.40;;;;;;;;;;6257643;28;20213;-58
2023/05/17 16:56:38;;;;;;;1.83;0.60;;;;;;;;;;6247858;28;20190;-58
2023/05/17 16:59:39;;;;;;;0.50;0.50;;;;;;;;;;6258960;28;20185;-59
2023/05/17 17:02:40;;;;;;;1.90;0.40;;;;;;;;;;6260226;28;20198;-61
2023/05/17 17:05:41;;;;;;;0.37;0.37;;;;;;;;;;6260666;28;20193;-63
2023/05/17 17:08:42;;;;;;;0.67;0.60;;;;;;;;;;6253371;28;20196;-58
2023/05/17 17:11:43;;;;;;;1.20;0.30;;;;;;;;;;6257157;28;20204;-59
2023/05/17 17:14:44;;;;;;;0.60;0.60;;;;;;;;;;6249545;28;20285;-66
2023/05/17 17:17:46;;;;;;;0.60;0.60;;;;;;;;;;6257979;28;20277;-66
2023/05/17 17:20:47;;;;;;;0.60;0.60;;;;;;;;;;6250806;28;20258;-63
2023/05/17 17:23:49;;;;;;;0.67;0.43;;;;;;;;;;6254446;28;20194;-64
2023/05/17 17:26:50;;;;;;;0.50;0.50;;;;;;;;;;6261216;28;20280;-63
2023/05/17 17:29:51;;;;;;;0.60;0.43;;;;;;;;;;6250206;28;20199;-63
2023/05/17 17:32:53;;;;;;;0.73;0.40;;;;;;;;;;6259587;28;20210;-63
2023/05/17 17:35:54;;;;;;;0.90;0.90;;;;;;;;;;6273043;28;20215;-61
2023/05/17 17:38:55;;;;;;;0.70;0.60;;;;;;;;;;6245861;28;20247;-61
2023/05/17 17:41:56;;;;;;;0.40;0.40;;;;;;;;;;6253217;28;20216;-59
2023/05/17 17:44:58;;;;;;;1.13;0.67;;;;;;;;;;6238895;28;20225;-60
2023/05/17 17:47:59;;;;;;;2.40;0.83;;;;;;;;;;6261226;28;20201;-59
2023/05/17 17:51:00;;;;;;;0.50;0.50;;;;;;;;;;6259241;28;20194;-59
2023/05/17 17:54:04;;;;;;;0.80;0.57;;;;;;;;;;6256549;28;20217;-60
2023/05/17 17:57:05;;;;;;;0.70;0.67;;;;;;;;;;6254210;28;20218;-60
2023/05/17 18:00:07;;;;;;;0.60;0.60;;;;;;;;;;6261914;28;20182;-60
2023/05/17 18:03:08;;;;;;;0.50;0.40;;;;;;;;;;6250606;28;20236;-60
2023/05/17 18:06:09;;;;;;;0.70;0.70;;;;;;;;;;6256509;28;20195;-60
2023/05/17 18:09:10;;;;;;;0.97;0.70;;;;;;;;;;6256105;28;20193;-60
2023/05/17 18:12:11;;;;;;;0.47;0.47;;;;;;;;;;6245533;28;20225;-59